4XCWK LLIB-LLIB

Flight info

Callsign 4XCWK
Flight time N/A
Altitude 1200
Route CIRCUITS
Aircraft C172/L-SDGRWY/XPDR

Departure

Time 2026-04-30 19:38
Airport Rosh Pina Airport (LLIB)

Arrival

Time N/A
Airport Rosh Pina Airport (LLIB)
Time Latitude Longitude Altitude Speed Heading
2026-04-30 19:28 32.97838 35.57243 950 ft 0 kts 199°
2026-04-30 19:29 32.97803 35.57260 950 ft 3 kts 173°
2026-04-30 19:30 32.97906 35.57317 951 ft 0 kts 330°
2026-04-30 19:30 32.97881 35.57322 951 ft 15 kts 154°
2026-04-30 19:31 32.97798 35.57302 949 ft 1 kts 216°
2026-04-30 19:31 32.97793 35.57298 950 ft 0 kts 216°
2026-04-30 19:31 32.97788 35.57306 949 ft 0 kts 43°
2026-04-30 19:32 32.97790 35.57307 949 ft 0 kts 43°
2026-04-30 19:35 32.97799 35.57318 948 ft 5 kts 49°
2026-04-30 19:36 32.97804 35.57324 951 ft 1 kts 49°
2026-04-30 19:36 32.97805 35.57326 951 ft 0 kts 49°
2026-04-30 19:36 32.97881 35.57336 952 ft 22 kts 327°
2026-04-30 19:37 32.98183 35.57131 952 ft 87 kts 333°
2026-04-30 19:37 32.98832 35.56744 1370 ft 123 kts 333°
2026-04-30 19:37 32.99745 35.56444 1401 ft 142 kts
2026-04-30 19:37 33.00199 35.57342 1457 ft 141 kts 86°
2026-04-30 19:38 33.00239 35.58548 1521 ft 128 kts 87°
2026-04-30 19:38 32.99872 35.59306 1461 ft 120 kts 165°
2026-04-30 19:38 32.99035 35.59423 1562 ft 118 kts 180°
2026-04-30 19:38 32.98189 35.59423 1575 ft 128 kts 181°
2026-04-30 19:39 32.97304 35.59421 1462 ft 121 kts 186°
2026-04-30 19:39 32.96941 35.58705 1321 ft 109 kts 280°
2026-04-30 19:39 32.97244 35.57879 1165 ft 110 kts 309°
2026-04-30 19:39 32.97834 35.57362 964 ft 102 kts 330°
2026-04-30 19:40 32.98462 35.56946 1087 ft 112 kts 331°
2026-04-30 19:40 32.99211 35.56465 1298 ft 136 kts 331°
2026-04-30 19:40 33.00063 35.55931 1452 ft 139 kts 333°
2026-04-30 19:40 33.00991 35.55560 1430 ft 151 kts 22°
2026-04-30 19:41 33.01278 35.56687 1394 ft 157 kts 101°
2026-04-30 19:41 33.01043 35.57960 1378 ft 158 kts 102°
2026-04-30 19:41 33.00787 35.59228 1361 ft 156 kts 110°
2026-04-30 19:41 32.99826 35.59326 1489 ft 150 kts 194°
2026-04-30 19:42 32.98804 35.59013 1458 ft 148 kts 196°
2026-04-30 19:42 32.97869 35.58741 1496 ft 129 kts 194°
2026-04-30 19:42 32.97127 35.58323 1507 ft 125 kts 253°
2026-04-30 19:42 32.97596 35.57524 1040 ft 122 kts 329°
2026-04-30 19:43 32.98221 35.57114 952 ft 86 kts 332°
2026-04-30 19:43 32.98793 35.56757 1258 ft 94 kts 332°
2026-04-30 19:43 32.99484 35.56337 1362 ft 113 kts 335°
2026-04-30 19:44 33.00750 35.56642 1471 ft 133 kts 82°
2026-04-30 19:44 33.00759 35.57771 1404 ft 139 kts 92°
2026-04-30 19:44 33.00559 35.58839 1227 ft 139 kts 153°
2026-04-30 19:44 32.99629 35.58896 1203 ft 135 kts 191°
2026-04-30 19:45 32.98731 35.58634 1220 ft 133 kts 197°
2026-04-30 19:45 32.97841 35.58405 1246 ft 134 kts 178°
2026-04-30 19:45 32.97460 35.57743 1125 ft 131 kts 306°
2026-04-30 19:45 32.98193 35.57127 953 ft 118 kts 331°